sensor_id;sensor_type;location;lat;lon;timestamp;pressure;altitude;pressure_sealevel;temperature;humidity
72560;BME280;62987;52.382;9.752;2023-12-28T00:00:52;100136.09;;;11.50;100.00
72560;BME280;62987;52.382;9.752;2023-12-28T00:03:22;100133.34;;;11.36;100.00
72560;BME280;62987;52.382;9.752;2023-12-28T00:05:50;100139.56;;;11.52;100.00
72560;BME280;62987;52.382;9.752;2023-12-28T00:08:18;100131.59;;;11.35;100.00
72560;BME280;62987;52.382;9.752;2023-12-28T00:10:47;100144.84;;;11.37;100.00
72560;BME280;62987;52.382;9.752;2023-12-28T00:13:15;100126.81;;;10.93;100.00
72560;BME280;62987;52.382;9.752;2023-12-28T00:15:44;100129.72;;;11.37;100.00
72560;BME280;62987;52.382;9.752;2023-12-28T00:18:11;100131.34;;;11.24;100.00
72560;BME280;62987;52.382;9.752;2023-12-28T00:20:41;100127.13;;;11.36;100.00
72560;BME280;62987;52.382;9.752;2023-12-28T00:23:10;100135.88;;;11.22;100.00
72560;BME280;62987;52.382;9.752;2023-12-28T00:25:38;100151.50;;;11.28;100.00
72560;BME280;62987;52.382;9.752;2023-12-28T00:28:06;100160.47;;;11.27;100.00
72560;BME280;62987;52.382;9.752;2023-12-28T00:30:35;100170.75;;;11.66;100.00
72560;BME280;62987;52.382;9.752;2023-12-28T00:33:04;100156.25;;;11.72;100.00
72560;BME280;62987;52.382;9.752;2023-12-28T00:35:33;100179.84;;;11.62;100.00
72560;BME280;62987;52.382;9.752;2023-12-28T00:38:03;100181.16;;;11.71;100.00
72560;BME280;62987;52.382;9.752;2023-12-28T00:40:31;100191.69;;;11.23;100.00
72560;BME280;62987;52.382;9.752;2023-12-28T00:43:00;100185.44;;;11.73;100.00
72560;BME280;62987;52.382;9.752;2023-12-28T00:45:28;100194.16;;;11.77;100.00
72560;BME280;62987;52.382;9.752;2023-12-28T00:47:56;100195.41;;;11.70;100.00
72560;BME280;62987;52.382;9.752;2023-12-28T00:50:26;100191.53;;;11.59;100.00
72560;BME280;62987;52.382;9.752;2023-12-28T00:52:58;100201.38;;;11.42;100.00
72560;BME280;62987;52.382;9.752;2023-12-28T00:55:28;100191.16;;;11.83;100.00
72560;BME280;62987;52.382;9.752;2023-12-28T00:57:57;100193.91;;;11.48;100.00
72560;BME280;62987;52.382;9.752;2023-12-28T01:00:27;100207.81;;;11.38;100.00
72560;BME280;62987;52.382;9.752;2023-12-28T01:02:56;100201.75;;;11.51;100.00
72560;BME280;62987;52.382;9.752;2023-12-28T01:05:24;100204.94;;;11.58;100.00
72560;BME280;62987;52.382;9.752;2023-12-28T01:07:55;100216.47;;;11.41;100.00
72560;BME280;62987;52.382;9.752;2023-12-28T01:10:24;100219.72;;;11.31;100.00
72560;BME280;62987;52.382;9.752;2023-12-28T01:12:54;100221.31;;;11.17;100.00
72560;BME280;62987;52.382;9.752;2023-12-28T01:15:22;100223.44;;;11.11;100.00
72560;BME280;62987;52.382;9.752;2023-12-28T01:17:52;100242.06;;;10.94;100.00
72560;BME280;62987;52.382;9.752;2023-12-28T01:20:21;100228.16;;;10.89;100.00
72560;BME280;62987;52.382;9.752;2023-12-28T01:22:50;100233.53;;;11.04;100.00
72560;BME280;62987;52.382;9.752;2023-12-28T01:25:18;100238.38;;;11.13;100.00
72560;BME280;62987;52.382;9.752;2023-12-28T01:27:47;100224.97;;;10.63;100.00
72560;BME280;62987;52.382;9.752;2023-12-28T01:30:17;100210.28;;;10.91;100.00
72560;BME280;62987;52.382;9.752;2023-12-28T01:32:46;100218.59;;;10.85;100.00
72560;BME280;62987;52.382;9.752;2023-12-28T01:35:15;100213.09;;;11.05;100.00
72560;BME280;62987;52.382;9.752;2023-12-28T01:37:44;100218.19;;;10.92;100.00
72560;BME280;62987;52.382;9.752;2023-12-28T01:40:13;100232.09;;;11.32;100.00
72560;BME280;62987;52.382;9.752;2023-12-28T01:42:41;100218.03;;;11.12;100.00
72560;BME280;62987;52.382;9.752;2023-12-28T01:45:09;100203.03;;;10.94;100.00
72560;BME280;62987;52.382;9.752;2023-12-28T01:47:39;100251.75;;;11.29;100.00
72560;BME280;62987;52.382;9.752;2023-12-28T01:50:09;100240.56;;;11.40;100.00
72560;BME280;62987;52.382;9.752;2023-12-28T01:52:37;100243.41;;;11.52;100.00
72560;BME280;62987;52.382;9.752;2023-12-28T01:55:07;100229.59;;;11.29;100.00
72560;BME280;62987;52.382;9.752;2023-12-28T01:57:36;100226.38;;;11.22;100.00
72560;BME280;62987;52.382;9.752;2023-12-28T02:00:05;100229.19;;;11.36;100.00
72560;BME280;62987;52.382;9.752;2023-12-28T02:02:45;100232.34;;;11.27;100.00
72560;BME280;62987;52.382;9.752;2023-12-28T02:05:14;100242.34;;;11.22;100.00
72560;BME280;62987;52.382;9.752;2023-12-28T02:07:42;100234.00;;;11.12;100.00
72560;BME280;62987;52.382;9.752;2023-12-28T02:10:10;100235.47;;;11.18;100.00
72560;BME280;62987;52.382;9.752;2023-12-28T02:12:39;100258.00;;;11.28;100.00
72560;BME280;62987;52.382;9.752;2023-12-28T02:15:08;100231.66;;;11.56;100.00
72560;BME280;62987;52.382;9.752;2023-12-28T02:17:41;100255.81;;;11.53;100.00
72560;BME280;62987;52.382;9.752;2023-12-28T02:20:13;100247.28;;;11.47;100.00
72560;BME280;62987;52.382;9.752;2023-12-28T02:22:43;100249.00;;;11.31;100.00
72560;BME280;62987;52.382;9.752;2023-12-28T02:25:13;100251.28;;;11.38;100.00
72560;BME280;62987;52.382;9.752;2023-12-28T02:27:43;100255.34;;;11.45;100.00
72560;BME280;62987;52.382;9.752;2023-12-28T02:30:15;100247.09;;;11.50;100.00
72560;BME280;62987;52.382;9.752;2023-12-28T02:32:52;100244.31;;;11.69;100.00
72560;BME280;62987;52.382;9.752;2023-12-28T02:35:26;100270.91;;;11.53;100.00
72560;BME280;62987;52.382;9.752;2023-12-28T02:38:00;100264.41;;;11.41;100.00
72560;BME280;62987;52.382;9.752;2023-12-28T02:40:35;100265.59;;;11.53;100.00
72560;BME280;62987;52.382;9.752;2023-12-28T02:43:06;100265.38;;;11.40;100.00
72560;BME280;62987;52.382;9.752;2023-12-28T02:45:37;100276.31;;;11.51;100.00
72560;BME280;62987;52.382;9.752;2023-12-28T02:48:07;100257.38;;;11.40;100.00
72560;BME280;62987;52.382;9.752;2023-12-28T02:50:36;100274.44;;;11.53;100.00
72560;BME280;62987;52.382;9.752;2023-12-28T02:53:04;100259.16;;;11.57;100.00
72560;BME280;62987;52.382;9.752;2023-12-28T02:55:35;100282.19;;;11.58;100.00
72560;BME280;62987;52.382;9.752;2023-12-28T02:58:04;100276.78;;;11.59;100.00
72560;BME280;62987;52.382;9.752;2023-12-28T03:00:32;100279.44;;;11.77;100.00
72560;BME280;62987;52.382;9.752;2023-12-28T03:03:01;100277.97;;;11.87;100.00
72560;BME280;62987;52.382;9.752;2023-12-28T03:05:29;100276.63;;;11.95;100.00
72560;BME280;62987;52.382;9.752;2023-12-28T03:07:58;100274.03;;;11.78;100.00
72560;BME280;62987;52.382;9.752;2023-12-28T03:10:27;100268.81;;;11.92;100.00
72560;BME280;62987;52.382;9.752;2023-12-28T03:12:57;100264.59;;;12.04;100.00
72560;BME280;62987;52.382;9.752;2023-12-28T03:15:25;100276.75;;;11.77;100.00
72560;BME280;62987;52.382;9.752;2023-12-28T03:17:56;100267.22;;;11.55;100.00
72560;BME280;62987;52.382;9.752;2023-12-28T03:20:25;100261.97;;;11.87;100.00
72560;BME280;62987;52.382;9.752;2023-12-28T03:22:53;100264.09;;;11.97;100.00
72560;BME280;62987;52.382;9.752;2023-12-28T03:25:24;100200.88;;;11.51;100.00
72560;BME280;62987;52.382;9.752;2023-12-28T03:27:54;100262.94;;;11.86;100.00
72560;BME280;62987;52.382;9.752;2023-12-28T03:30:24;100264.41;;;11.91;100.00
72560;BME280;62987;52.382;9.752;2023-12-28T03:32:53;100257.47;;;11.72;100.00
72560;BME280;62987;52.382;9.752;2023-12-28T03:35:22;100260.66;;;12.11;100.00
72560;BME280;62987;52.382;9.752;2023-12-28T03:37:50;100264.41;;;11.91;100.00
72560;BME280;62987;52.382;9.752;2023-12-28T03:40:18;100257.94;;;11.80;100.00
72560;BME280;62987;52.382;9.752;2023-12-28T03:42:47;100270.19;;;12.15;100.00
72560;BME280;62987;52.382;9.752;2023-12-28T03:45:15;100275.34;;;12.02;100.00
72560;BME280;62987;52.382;9.752;2023-12-28T03:47:45;100274.91;;;12.26;100.00
72560;BME280;62987;52.382;9.752;2023-12-28T03:50:15;100265.00;;;12.12;100.00
72560;BME280;62987;52.382;9.752;2023-12-28T03:52:44;100271.13;;;11.98;100.00
72560;BME280;62987;52.382;9.752;2023-12-28T03:55:12;100277.00;;;12.05;100.00
72560;BME280;62987;52.382;9.752;2023-12-28T03:57:40;100269.00;;;12.05;100.00
72560;BME280;62987;52.382;9.752;2023-12-28T04:00:10;100270.22;;;12.31;100.00
72560;BME280;62987;52.382;9.752;2023-12-28T04:02:39;100268.72;;;12.25;100.00
72560;BME280;62987;52.382;9.752;2023-12-28T04:05:09;100274.34;;;12.05;100.00
72560;BME280;62987;52.382;9.752;2023-12-28T04:07:37;100268.22;;;12.03;100.00
72560;BME280;62987;52.382;9.752;2023-12-28T04:10:07;100272.78;;;12.32;100.00
72560;BME280;62987;52.382;9.752;2023-12-28T04:12:36;100269.34;;;12.30;100.00
72560;BME280;62987;52.382;9.752;2023-12-28T04:15:06;100267.69;;;12.12;100.00
72560;BME280;62987;52.382;9.752;2023-12-28T04:17:35;100266.34;;;12.05;100.00
72560;BME280;62987;52.382;9.752;2023-12-28T04:20:06;100265.75;;;12.31;100.00
72560;BME280;62987;52.382;9.752;2023-12-28T04:22:36;100263.84;;;12.18;100.00
72560;BME280;62987;52.382;9.752;2023-12-28T04:25:05;100260.13;;;12.05;100.00
72560;BME280;62987;52.382;9.752;2023-12-28T04:27:34;100252.56;;;11.97;100.00
72560;BME280;62987;52.382;9.752;2023-12-28T04:30:03;100268.13;;;12.05;100.00
72560;BME280;62987;52.382;9.752;2023-12-28T04:32:32;100266.69;;;12.30;100.00
72560;BME280;62987;52.382;9.752;2023-12-28T04:35:02;100254.19;;;11.99;100.00
72560;BME280;62987;52.382;9.752;2023-12-28T04:37:32;100256.69;;;12.50;100.00
72560;BME280;62987;52.382;9.752;2023-12-28T04:40:03;100243.25;;;12.20;100.00
72560;BME280;62987;52.382;9.752;2023-12-28T04:42:32;100246.34;;;12.12;100.00
72560;BME280;62987;52.382;9.752;2023-12-28T04:45:00;100276.69;;;11.94;100.00
72560;BME280;62987;52.382;9.752;2023-12-28T04:47:30;100265.28;;;12.39;100.00
72560;BME280;62987;52.382;9.752;2023-12-28T04:49:58;100270.78;;;12.20;100.00
72560;BME280;62987;52.382;9.752;2023-12-28T04:52:27;100277.00;;;12.36;100.00
72560;BME280;62987;52.382;9.752;2023-12-28T04:54:56;100264.19;;;12.27;100.00
72560;BME280;62987;52.382;9.752;2023-12-28T04:57:26;100258.22;;;11.91;100.00
72560;BME280;62987;52.382;9.752;2023-12-28T04:59:55;100257.75;;;12.31;100.00
72560;BME280;62987;52.382;9.752;2023-12-28T05:02:24;100265.47;;;12.20;100.00
72560;BME280;62987;52.382;9.752;2023-12-28T05:04:52;100257.56;;;12.34;100.00
72560;BME280;62987;52.382;9.752;2023-12-28T05:07:23;100262.88;;;12.34;100.00
72560;BME280;62987;52.382;9.752;2023-12-28T05:09:52;100262.19;;;12.15;100.00
72560;BME280;62987;52.382;9.752;2023-12-28T05:12:20;100271.13;;;12.14;100.00
72560;BME280;62987;52.382;9.752;2023-12-28T05:14:50;100255.94;;;12.16;100.00
72560;BME280;62987;52.382;9.752;2023-12-28T05:17:18;100265.09;;;11.95;100.00
72560;BME280;62987;52.382;9.752;2023-12-28T05:19:46;100279.22;;;12.28;100.00
72560;BME280;62987;52.382;9.752;2023-12-28T05:22:15;100282.25;;;12.22;100.00
72560;BME280;62987;52.382;9.752;2023-12-28T05:24:43;100278.34;;;12.12;100.00
72560;BME280;62987;52.382;9.752;2023-12-28T05:27:12;100277.19;;;12.18;100.00
72560;BME280;62987;52.382;9.752;2023-12-28T05:29:40;100279.75;;;12.04;100.00
72560;BME280;62987;52.382;9.752;2023-12-28T05:32:10;100271.91;;;12.16;100.00
72560;BME280;62987;52.382;9.752;2023-12-28T05:34:38;100284.28;;;12.01;100.00
72560;BME280;62987;52.382;9.752;2023-12-28T05:37:10;100286.78;;;12.20;100.00
72560;BME280;62987;52.382;9.752;2023-12-28T05:39:38;100287.38;;;12.25;100.00
72560;BME280;62987;52.382;9.752;2023-12-28T05:42:07;100288.78;;;12.32;100.00
72560;BME280;62987;52.382;9.752;2023-12-28T05:44:35;100288.97;;;12.29;100.00
72560;BME280;62987;52.382;9.752;2023-12-28T05:47:04;100294.19;;;12.47;100.00
72560;BME280;62987;52.382;9.752;2023-12-28T05:49:33;100293.84;;;12.53;100.00
72560;BME280;62987;52.382;9.752;2023-12-28T05:52:02;100282.66;;;12.15;100.00
72560;BME280;62987;52.382;9.752;2023-12-28T05:54:31;100300.81;;;12.55;100.00
72560;BME280;62987;52.382;9.752;2023-12-28T05:56:59;100301.41;;;12.45;100.00
72560;BME280;62987;52.382;9.752;2023-12-28T05:59:28;100299.44;;;12.32;100.00
72560;BME280;62987;52.382;9.752;2023-12-28T06:02:07;100286.13;;;12.64;100.00
72560;BME280;62987;52.382;9.752;2023-12-28T06:04:38;100294.00;;;12.81;100.00
72560;BME280;62987;52.382;9.752;2023-12-28T06:07:07;100292.19;;;12.66;100.00
72560;BME280;62987;52.382;9.752;2023-12-28T06:09:36;100285.53;;;12.43;100.00
72560;BME280;62987;52.382;9.752;2023-12-28T06:12:06;100297.09;;;12.89;100.00
72560;BME280;62987;52.382;9.752;2023-12-28T06:14:35;100287.41;;;13.02;100.00
72560;BME280;62987;52.382;9.752;2023-12-28T06:17:03;100302.25;;;12.92;100.00
72560;BME280;62987;52.382;9.752;2023-12-28T06:19:32;100292.03;;;12.69;100.00
72560;BME280;62987;52.382;9.752;2023-12-28T06:22:02;100301.09;;;12.51;100.00
72560;BME280;62987;52.382;9.752;2023-12-28T06:24:30;100282.59;;;12.93;100.00
72560;BME280;62987;52.382;9.752;2023-12-28T06:26:59;100294.78;;;12.83;100.00
72560;BME280;62987;52.382;9.752;2023-12-28T06:29:28;100311.13;;;12.77;100.00
72560;BME280;62987;52.382;9.752;2023-12-28T06:31:56;100302.81;;;12.36;100.00
72560;BME280;62987;52.382;9.752;2023-12-28T06:34:24;100300.41;;;12.63;100.00
72560;BME280;62987;52.382;9.752;2023-12-28T06:36:54;100297.38;;;12.53;100.00
72560;BME280;62987;52.382;9.752;2023-12-28T06:39:24;100313.41;;;12.37;100.00
72560;BME280;62987;52.382;9.752;2023-12-28T06:41:52;100306.69;;;12.30;100.00
72560;BME280;62987;52.382;9.752;2023-12-28T06:44:21;100326.81;;;12.83;100.00
72560;BME280;62987;52.382;9.752;2023-12-28T06:46:50;100316.75;;;12.57;100.00
72560;BME280;62987;52.382;9.752;2023-12-28T06:49:18;100313.56;;;12.66;100.00
72560;BME280;62987;52.382;9.752;2023-12-28T06:51:46;100321.91;;;12.44;100.00
72560;BME280;62987;52.382;9.752;2023-12-28T06:54:15;100308.31;;;12.49;100.00
72560;BME280;62987;52.382;9.752;2023-12-28T06:56:45;100308.47;;;12.46;100.00
72560;BME280;62987;52.382;9.752;2023-12-28T06:59:13;100287.13;;;12.46;100.00
72560;BME280;62987;52.382;9.752;2023-12-28T07:01:42;100296.69;;;12.18;100.00
72560;BME280;62987;52.382;9.752;2023-12-28T07:04:12;100287.66;;;12.21;100.00
72560;BME280;62987;52.382;9.752;2023-12-28T07:06:41;100307.03;;;12.56;100.00
72560;BME280;62987;52.382;9.752;2023-12-28T07:09:10;100314.44;;;12.51;100.00
72560;BME280;62987;52.382;9.752;2023-12-28T07:11:38;100310.78;;;12.52;100.00
72560;BME280;62987;52.382;9.752;2023-12-28T07:14:08;100313.81;;;12.61;100.00
72560;BME280;62987;52.382;9.752;2023-12-28T07:16:37;100322.09;;;12.57;100.00
72560;BME280;62987;52.382;9.752;2023-12-28T07:19:05;100315.19;;;12.53;100.00
72560;BME280;62987;52.382;9.752;2023-12-28T07:21:34;100328.81;;;12.64;100.00
72560;BME280;62987;52.382;9.752;2023-12-28T07:24:03;100324.47;;;12.46;100.00
72560;BME280;62987;52.382;9.752;2023-12-28T07:26:31;100333.41;;;12.45;100.00
72560;BME280;62987;52.382;9.752;2023-12-28T07:29:00;100330.34;;;12.68;100.00
72560;BME280;62987;52.382;9.752;2023-12-28T07:31:30;100334.47;;;12.73;100.00
72560;BME280;62987;52.382;9.752;2023-12-28T07:33:59;100340.25;;;12.50;100.00
72560;BME280;62987;52.382;9.752;2023-12-28T07:36:28;100339.38;;;12.50;100.00
72560;BME280;62987;52.382;9.752;2023-12-28T07:38:57;100347.28;;;12.67;100.00
72560;BME280;62987;52.382;9.752;2023-12-28T07:41:25;100332.31;;;12.80;100.00
72560;BME280;62987;52.382;9.752;2023-12-28T07:43:53;100349.44;;;12.45;100.00
72560;BME280;62987;52.382;9.752;2023-12-28T07:46:22;100341.44;;;12.76;100.00
72560;BME280;62987;52.382;9.752;2023-12-28T07:48:52;100342.75;;;12.69;100.00
72560;BME280;62987;52.382;9.752;2023-12-28T07:51:21;100346.59;;;12.48;100.00
72560;BME280;62987;52.382;9.752;2023-12-28T07:53:49;100347.03;;;12.71;100.00
72560;BME280;62987;52.382;9.752;2023-12-28T07:56:18;100347.34;;;12.97;100.00
72560;BME280;62987;52.382;9.752;2023-12-28T07:58:47;100339.72;;;12.75;100.00
72560;BME280;62987;52.382;9.752;2023-12-28T08:01:15;100341.47;;;13.06;100.00
72560;BME280;62987;52.382;9.752;2023-12-28T08:03:44;100359.00;;;12.80;100.00
72560;BME280;62987;52.382;9.752;2023-12-28T08:06:14;100358.75;;;12.69;100.00
72560;BME280;62987;52.382;9.752;2023-12-28T08:08:43;100362.44;;;12.82;100.00
72560;BME280;62987;52.382;9.752;2023-12-28T08:11:11;100364.56;;;12.91;100.00
72560;BME280;62987;52.382;9.752;2023-12-28T08:13:40;100364.22;;;12.97;100.00
72560;BME280;62987;52.382;9.752;2023-12-28T08:16:08;100377.31;;;13.17;100.00
72560;BME280;62987;52.382;9.752;2023-12-28T08:18:37;100378.56;;;12.96;100.00
72560;BME280;62987;52.382;9.752;2023-12-28T08:21:05;100379.56;;;12.94;100.00
72560;BME280;62987;52.382;9.752;2023-12-28T08:23:35;100381.81;;;12.70;100.00
72560;BME280;62987;52.382;9.752;2023-12-28T08:26:04;100388.00;;;12.70;100.00
72560;BME280;62987;52.382;9.752;2023-12-28T08:28:34;100390.25;;;12.78;100.00
72560;BME280;62987;52.382;9.752;2023-12-28T08:31:02;100397.13;;;12.98;100.00
72560;BME280;62987;52.382;9.752;2023-12-28T08:33:31;100399.19;;;12.93;100.00
72560;BME280;62987;52.382;9.752;2023-12-28T08:36:00;100380.00;;;13.02;100.00
72560;BME280;62987;52.382;9.752;2023-12-28T08:38:28;100392.28;;;13.04;100.00
72560;BME280;62987;52.382;9.752;2023-12-28T08:40:58;100393.69;;;12.80;100.00
72560;BME280;62987;52.382;9.752;2023-12-28T08:43:27;100383.97;;;12.95;100.00
72560;BME280;62987;52.382;9.752;2023-12-28T08:45:55;100388.34;;;12.80;100.00
72560;BME280;62987;52.382;9.752;2023-12-28T08:48:24;100384.75;;;13.12;100.00
72560;BME280;62987;52.382;9.752;2023-12-28T08:50:53;100371.66;;;12.61;100.00
72560;BME280;62987;52.382;9.752;2023-12-28T08:53:21;100394.88;;;13.06;100.00
72560;BME280;62987;52.382;9.752;2023-12-28T08:55:51;100392.38;;;13.03;100.00
72560;BME280;62987;52.382;9.752;2023-12-28T08:58:21;100394.06;;;12.90;100.00
72560;BME280;62987;52.382;9.752;2023-12-28T09:00:49;100395.28;;;13.15;100.00
72560;BME280;62987;52.382;9.752;2023-12-28T09:03:18;100391.69;;;12.99;100.00
72560;BME280;62987;52.382;9.752;2023-12-28T09:05:50;100408.16;;;13.23;100.00
72560;BME280;62987;52.382;9.752;2023-12-28T09:08:18;100393.19;;;13.20;100.00
72560;BME280;62987;52.382;9.752;2023-12-28T09:10:47;100400.41;;;13.18;100.00
72560;BME280;62987;52.382;9.752;2023-12-28T09:13:16;100415.28;;;13.38;100.00
72560;BME280;62987;52.382;9.752;2023-12-28T09:15:46;100402.13;;;13.19;100.00
72560;BME280;62987;52.382;9.752;2023-12-28T09:18:15;100406.53;;;13.20;100.00
72560;BME280;62987;52.382;9.752;2023-12-28T09:20:44;100401.69;;;13.27;100.00
72560;BME280;62987;52.382;9.752;2023-12-28T09:23:12;100412.97;;;13.01;100.00
72560;BME280;62987;52.382;9.752;2023-12-28T09:25:41;100401.44;;;13.32;100.00
72560;BME280;62987;52.382;9.752;2023-12-28T09:28:09;100394.34;;;13.31;100.00
72560;BME280;62987;52.382;9.752;2023-12-28T09:30:38;100390.25;;;13.25;100.00
72560;BME280;62987;52.382;9.752;2023-12-28T09:33:07;100380.75;;;13.04;100.00
72560;BME280;62987;52.382;9.752;2023-12-28T09:35:37;100409.97;;;13.23;100.00
72560;BME280;62987;52.382;9.752;2023-12-28T09:38:05;100394.06;;;13.35;100.00
72560;BME280;62987;52.382;9.752;2023-12-28T09:40:35;100398.34;;;13.24;100.00
72560;BME280;62987;52.382;9.752;2023-12-28T09:43:11;100398.03;;;13.14;100.00
72560;BME280;62987;52.382;9.752;2023-12-28T09:45:40;100408.25;;;13.22;100.00
72560;BME280;62987;52.382;9.752;2023-12-28T09:48:11;100409.00;;;13.24;100.00
72560;BME280;62987;52.382;9.752;2023-12-28T09:50:40;100412.38;;;13.11;100.00
72560;BME280;62987;52.382;9.752;2023-12-28T09:53:08;100412.31;;;13.13;100.00
72560;BME280;62987;52.382;9.752;2023-12-28T09:55:37;100397.97;;;13.30;100.00
72560;BME280;62987;52.382;9.752;2023-12-28T09:58:05;100400.44;;;13.48;100.00
72560;BME280;62987;52.382;9.752;2023-12-28T10:00:34;100404.75;;;13.51;100.00
72560;BME280;62987;52.382;9.752;2023-12-28T10:03:03;100397.25;;;13.42;100.00
72560;BME280;62987;52.382;9.752;2023-12-28T10:05:33;100391.78;;;13.29;100.00
72560;BME280;62987;52.382;9.752;2023-12-28T10:08:02;100395.25;;;13.75;100.00
72560;BME280;62987;52.382;9.752;2023-12-28T10:10:31;100384.47;;;13.77;100.00
72560;BME280;62987;52.382;9.752;2023-12-28T10:13:00;100366.69;;;13.61;100.00
72560;BME280;62987;52.382;9.752;2023-12-28T10:15:30;100365.31;;;13.84;100.00
72560;BME280;62987;52.382;9.752;2023-12-28T10:17:59;100351.72;;;13.87;100.00
72560;BME280;62987;52.382;9.752;2023-12-28T10:20:28;100351.38;;;14.91;100.00
72560;BME280;62987;52.382;9.752;2023-12-28T10:22:59;100337.56;;;15.76;100.00
72560;BME280;62987;52.382;9.752;2023-12-28T10:25:30;100330.59;;;16.12;100.00
72560;BME280;62987;52.382;9.752;2023-12-28T10:28:04;100339.97;;;15.41;100.00
72560;BME280;62987;52.382;9.752;2023-12-28T10:30:32;100337.47;;;17.01;100.00
72560;BME280;62987;52.382;9.752;2023-12-28T10:33:04;100319.81;;;17.45;100.00
72560;BME280;62987;52.382;9.752;2023-12-28T10:35:33;100340.47;;;17.09;100.00
72560;BME280;62987;52.382;9.752;2023-12-28T10:38:04;100338.66;;;15.86;100.00
72560;BME280;62987;52.382;9.752;2023-12-28T10:40:37;100356.97;;;15.54;100.00
72560;BME280;62987;52.382;9.752;2023-12-28T10:43:07;100354.34;;;14.87;100.00
72560;BME280;62987;52.382;9.752;2023-12-28T10:45:39;100357.13;;;14.85;100.00
72560;BME280;62987;52.382;9.752;2023-12-28T10:48:11;100352.53;;;15.14;100.00
72560;BME280;62987;52.382;9.752;2023-12-28T10:50:42;100362.63;;;14.69;100.00
72560;BME280;62987;52.382;9.752;2023-12-28T10:53:25;100353.09;;;14.37;100.00
72560;BME280;62987;52.382;9.752;2023-12-28T10:56:03;100359.56;;;14.33;100.00
72560;BME280;62987;52.382;9.752;2023-12-28T10:58:40;100363.88;;;14.21;100.00
72560;BME280;62987;52.382;9.752;2023-12-28T11:01:17;100356.53;;;13.96;100.00
72560;BME280;62987;52.382;9.752;2023-12-28T11:03:47;100376.31;;;14.08;100.00
72560;BME280;62987;52.382;9.752;2023-12-28T11:06:19;100361.69;;;14.14;100.00
72560;BME280;62987;52.382;9.752;2023-12-28T11:08:50;100370.88;;;14.10;100.00
72560;BME280;62987;52.382;9.752;2023-12-28T11:11:21;100368.59;;;14.32;100.00
72560;BME280;62987;52.382;9.752;2023-12-28T11:13:50;100362.88;;;14.38;100.00
72560;BME280;62987;52.382;9.752;2023-12-28T11:16:20;100347.34;;;14.00;100.00
72560;BME280;62987;52.382;9.752;2023-12-28T11:18:51;100359.97;;;13.98;100.00
72560;BME280;62987;52.382;9.752;2023-12-28T11:21:22;100357.38;;;13.97;100.00
72560;BME280;62987;52.382;9.752;2023-12-28T11:23:53;100358.84;;;14.17;100.00
72560;BME280;62987;52.382;9.752;2023-12-28T11:26:22;100356.63;;;14.09;100.00
72560;BME280;62987;52.382;9.752;2023-12-28T11:29:00;100354.03;;;14.08;100.00
72560;BME280;62987;52.382;9.752;2023-12-28T11:31:32;100356.59;;;13.81;100.00
72560;BME280;62987;52.382;9.752;2023-12-28T11:34:03;100373.13;;;13.87;100.00
72560;BME280;62987;52.382;9.752;2023-12-28T11:36:38;100350.25;;;14.12;100.00
72560;BME280;62987;52.382;9.752;2023-12-28T11:39:12;100363.22;;;14.04;100.00
72560;BME280;62987;52.382;9.752;2023-12-28T11:41:42;100366.81;;;13.74;100.00
72560;BME280;62987;52.382;9.752;2023-12-28T11:44:11;100363.50;;;14.13;100.00
72560;BME280;62987;52.382;9.752;2023-12-28T11:46:39;100366.66;;;14.06;100.00
72560;BME280;62987;52.382;9.752;2023-12-28T11:49:11;100351.66;;;14.17;100.00
72560;BME280;62987;52.382;9.752;2023-12-28T11:51:40;100362.38;;;14.17;100.00
72560;BME280;62987;52.382;9.752;2023-12-28T11:54:11;100349.47;;;14.10;100.00
72560;BME280;62987;52.382;9.752;2023-12-28T11:56:39;100362.94;;;14.22;100.00
72560;BME280;62987;52.382;9.752;2023-12-28T11:59:08;100349.06;;;13.87;100.00
72560;BME280;62987;52.382;9.752;2023-12-28T12:01:40;100341.91;;;13.88;100.00
72560;BME280;62987;52.382;9.752;2023-12-28T12:04:11;100333.50;;;14.08;100.00
72560;BME280;62987;52.382;9.752;2023-12-28T12:06:39;100331.31;;;14.00;100.00
72560;BME280;62987;52.382;9.752;2023-12-28T12:09:12;100326.72;;;14.17;100.00
72560;BME280;62987;52.382;9.752;2023-12-28T12:11:40;100323.28;;;14.15;100.00
72560;BME280;62987;52.382;9.752;2023-12-28T12:14:09;100314.88;;;14.35;100.00
72560;BME280;62987;52.382;9.752;2023-12-28T12:16:39;100340.03;;;14.18;100.00
72560;BME280;62987;52.382;9.752;2023-12-28T12:19:07;100337.53;;;14.29;100.00
72560;BME280;62987;52.382;9.752;2023-12-28T12:21:36;100310.69;;;14.45;100.00
72560;BME280;62987;52.382;9.752;2023-12-28T12:24:05;100307.63;;;14.09;100.00
72560;BME280;62987;52.382;9.752;2023-12-28T12:26:35;100300.28;;;14.12;100.00
72560;BME280;62987;52.382;9.752;2023-12-28T12:29:04;100316.97;;;14.30;100.00
72560;BME280;62987;52.382;9.752;2023-12-28T12:31:34;100316.16;;;14.70;100.00
72560;BME280;62987;52.382;9.752;2023-12-28T12:34:04;100323.03;;;14.74;100.00
72560;BME280;62987;52.382;9.752;2023-12-28T12:36:34;100316.78;;;14.47;100.00
72560;BME280;62987;52.382;9.752;2023-12-28T12:39:02;100299.66;;;14.91;100.00
72560;BME280;62987;52.382;9.752;2023-12-28T12:41:34;100294.72;;;14.29;100.00
72560;BME280;62987;52.382;9.752;2023-12-28T12:44:03;100286.22;;;14.51;100.00
72560;BME280;62987;52.382;9.752;2023-12-28T12:46:32;100294.75;;;14.70;100.00
72560;BME280;62987;52.382;9.752;2023-12-28T12:49:01;100289.63;;;14.80;100.00
72560;BME280;62987;52.382;9.752;2023-12-28T12:51:31;100291.94;;;14.31;100.00